Bellevue, Nebraska
Current Conditions -  °F | °C
As of 10:58 PM on Friday 19 Dec 2014 (Local Time) from KOFF Reporting Station
Overcast Overcast  
Wind Chill: 23°   Ceiling: 1200
Heat Index: 31°   Visibility: 10mi
Dew Point: 29°   Wind: 9mph
Humidity: 91%   Direction: 140°SE
Pressure: 30.14"   Gusts: NA
Location:  41.14°N, 95.89°W
Report Text: KOFF 200458Z AUTO 14008KT 10SM OVC012 00/M02 A3014 RMK AO2 SLP222 T10051018
Loading
Personal Weather Stations






























Interactive Weather Map New forecast layout! Learn more

10-Day Weather Forecast

Advertisements
Track Severe Weather on mobile